createdAt,value
2022-12-19T00:00:50.167Z,-4.60
2022-12-19T00:03:28.150Z,-4.60
2022-12-19T00:05:55.316Z,-4.70
2022-12-19T00:08:25.237Z,-4.60
2022-12-19T00:11:01.013Z,-4.70
2022-12-19T00:13:36.228Z,-4.70
2022-12-19T00:16:17.693Z,-4.80
2022-12-19T00:18:48.744Z,-4.80
2022-12-19T00:21:25.292Z,-4.90
2022-12-19T00:23:58.248Z,-4.90
2022-12-19T00:26:29.877Z,-4.80
2022-12-19T00:29:04.183Z,-4.90
2022-12-19T00:31:33.300Z,-4.80
2022-12-19T00:34:03.794Z,-4.90
2022-12-19T00:36:36.462Z,-4.90
2022-12-19T00:39:08.210Z,-4.90
2022-12-19T00:41:41.300Z,-4.90
2022-12-19T00:44:19.191Z,-5.00
2022-12-19T00:46:52.492Z,-5.00
2022-12-19T00:49:21.640Z,-5.00
2022-12-19T00:51:48.740Z,-4.90
2022-12-19T00:54:18.452Z,-4.90
2022-12-19T00:56:53.332Z,-4.90
2022-12-19T00:59:28.321Z,-5.00
2022-12-19T01:02:02.124Z,-5.10
2022-12-19T01:04:33.504Z,-5.10
2022-12-19T01:07:08.187Z,-5.20
2022-12-19T01:09:40.322Z,-5.20
2022-12-19T01:12:29.642Z,-5.20
2022-12-19T01:15:03.940Z,-5.30
2022-12-19T01:17:40.355Z,-5.30
2022-12-19T01:20:18.207Z,-5.30
2022-12-19T01:22:51.702Z,-5.30
2022-12-19T01:25:22.083Z,-5.30
2022-12-19T01:27:54.733Z,-5.30
2022-12-19T01:30:29.242Z,-5.40
2022-12-19T01:33:00.977Z,-5.50
2022-12-19T01:35:35.321Z,-5.40
2022-12-19T01:38:08.690Z,-5.40
2022-12-19T01:40:40.867Z,-5.40
2022-12-19T01:43:13.862Z,-5.40
2022-12-19T01:45:46.026Z,-5.50
2022-12-19T01:48:22.241Z,-5.60
2022-12-19T01:51:03.825Z,-5.50
2022-12-19T01:53:48.700Z,-5.50
2022-12-19T01:56:33.755Z,-5.50
2022-12-19T01:59:10.211Z,-5.50
2022-12-19T02:01:51.496Z,-5.60
2022-12-19T02:04:23.561Z,-5.60
2022-12-19T02:06:55.144Z,-5.70
2022-12-19T02:09:24.682Z,-5.60
2022-12-19T02:11:55.400Z,-5.70
2022-12-19T02:14:26.968Z,-5.80
2022-12-19T02:17:15.659Z,-5.80
2022-12-19T02:20:01.540Z,-5.80
2022-12-19T02:23:07.081Z,-5.80
2022-12-19T02:25:58.252Z,-5.80
2022-12-19T02:28:53.033Z,-5.70
2022-12-19T02:31:29.096Z,-5.80
2022-12-19T02:34:11.591Z,-5.90
2022-12-19T02:37:11.494Z,-6.00
2022-12-19T02:39:47.140Z,-6.10
2022-12-19T02:42:18.052Z,-6.20
2022-12-19T02:44:50.873Z,-6.20
2022-12-19T02:47:21.930Z,-6.10
2022-12-19T02:49:49.515Z,-6.10
2022-12-19T02:52:19.856Z,-6.20
2022-12-19T02:54:53.481Z,-6.20
2022-12-19T02:57:31.634Z,-6.20
2022-12-19T03:00:05.562Z,-6.20
2022-12-19T03:03:00.384Z,-6.10
2022-12-19T03:05:43.228Z,-6.20
2022-12-19T03:08:21.983Z,-6.10
2022-12-19T03:11:02.013Z,-6.10
2022-12-19T03:13:41.396Z,-6.20
2022-12-19T03:16:13.072Z,-6.20
2022-12-19T03:18:43.212Z,-6.20
2022-12-19T03:21:16.638Z,-6.20
2022-12-19T03:23:47.376Z,-6.20
2022-12-19T03:26:23.562Z,-6.30
2022-12-19T03:28:56.080Z,-6.20
2022-12-19T03:31:29.527Z,-6.30
2022-12-19T03:34:28.551Z,-6.30
2022-12-19T03:37:02.098Z,-6.30
2022-12-19T03:39:34.023Z,-6.30
2022-12-19T03:42:23.981Z,-6.40
2022-12-19T03:44:55.137Z,-6.50
2022-12-19T03:47:39.967Z,-6.50
2022-12-19T03:50:08.413Z,-6.60
2022-12-19T03:53:05.688Z,-6.70
2022-12-19T03:55:47.616Z,-6.60
2022-12-19T03:58:30.186Z,-6.60
2022-12-19T04:01:01.417Z,-6.60
2022-12-19T04:03:34.498Z,-6.60
2022-12-19T04:06:03.563Z,-6.60
2022-12-19T04:08:35.461Z,-6.50
2022-12-19T04:11:16.165Z,-6.60
2022-12-19T04:13:51.242Z,-6.60
2022-12-19T04:16:46.541Z,-6.60
2022-12-19T04:19:25.372Z,-6.60
2022-12-19T04:22:06.703Z,-6.70
2022-12-19T04:24:37.600Z,-6.70
2022-12-19T04:27:12.415Z,-6.70
2022-12-19T04:29:42.746Z,-6.60
2022-12-19T04:32:11.171Z,-6.80
2022-12-19T04:34:43.291Z,-6.80
2022-12-19T04:37:11.484Z,-6.80
2022-12-19T04:39:43.443Z,-6.90
2022-12-19T04:42:12.726Z,-7.00
2022-12-19T04:44:40.056Z,-7.00
2022-12-19T04:47:09.576Z,-7.20
2022-12-19T04:49:36.958Z,-7.20
2022-12-19T04:52:04.108Z,-7.10
2022-12-19T04:54:34.023Z,-7.00
2022-12-19T04:57:01.274Z,-7.00
2022-12-19T04:59:28.711Z,-7.00
2022-12-19T05:01:58.622Z,-7.00
2022-12-19T05:04:31.858Z,-7.00
2022-12-19T05:07:01.886Z,-6.90
2022-12-19T05:09:31.749Z,-7.00
2022-12-19T05:12:01.341Z,-7.10
2022-12-19T05:14:28.842Z,-7.00
2022-12-19T05:17:00.974Z,-7.10
2022-12-19T05:19:33.638Z,-7.10
2022-12-19T05:22:04.097Z,-7.10
2022-12-19T05:24:34.000Z,-7.00
2022-12-19T05:27:01.051Z,-7.00
2022-12-19T05:29:30.624Z,-7.10
2022-12-19T05:32:02.556Z,-7.10
2022-12-19T05:34:34.214Z,-7.20
2022-12-19T05:37:03.483Z,-7.20
2022-12-19T05:39:33.360Z,-7.30
2022-12-19T05:42:02.648Z,-7.40
2022-12-19T05:44:32.319Z,-7.40
2022-12-19T05:46:59.449Z,-7.20
2022-12-19T05:49:31.585Z,-7.30
2022-12-19T05:52:01.073Z,-7.30
2022-12-19T05:54:30.950Z,-7.30
2022-12-19T05:57:03.266Z,-7.30
2022-12-19T05:59:33.710Z,-7.20
2022-12-19T06:02:03.108Z,-7.20
2022-12-19T06:04:33.315Z,-7.10
2022-12-19T06:07:03.874Z,-7.10
2022-12-19T06:09:35.940Z,-7.10
2022-12-19T06:12:05.967Z,-7.20
2022-12-19T06:14:33.734Z,-7.20
2022-12-19T06:17:00.839Z,-7.20
2022-12-19T06:19:28.402Z,-7.20
2022-12-19T06:21:58.090Z,-7.10
2022-12-19T06:24:30.158Z,-7.10
2022-12-19T06:27:02.123Z,-7.20
2022-12-19T06:29:29.458Z,-7.20
2022-12-19T06:31:58.855Z,-7.30
2022-12-19T06:34:55.184Z,-7.40
2022-12-19T06:37:13.662Z,-7.40
2022-12-19T06:39:43.352Z,-7.30
2022-12-19T06:42:24.947Z,-7.30
2022-12-19T06:44:58.262Z,-7.30
2022-12-19T06:47:32.509Z,-7.20
2022-12-19T06:50:02.587Z,-7.20
2022-12-19T06:52:29.626Z,-7.20
2022-12-19T06:54:59.424Z,-7.30
2022-12-19T06:57:29.111Z,-7.20
2022-12-19T07:00:01.110Z,-7.20
2022-12-19T07:02:32.539Z,-7.30
2022-12-19T07:05:06.355Z,-7.30
2022-12-19T07:07:38.120Z,-7.30
2022-12-19T07:10:06.876Z,-7.20
2022-12-19T07:12:40.754Z,-7.10
2022-12-19T07:15:13.342Z,-7.10
2022-12-19T07:17:40.757Z,-7.10
2022-12-19T07:20:08.699Z,-7.10
2022-12-19T07:22:39.216Z,-7.10
2022-12-19T07:25:07.490Z,-7.10
2022-12-19T07:27:36.112Z,-7.20
2022-12-19T07:30:05.981Z,-7.10
2022-12-19T07:32:33.457Z,-7.10
2022-12-19T07:35:06.399Z,-7.10
2022-12-19T07:37:33.596Z,-7.10
2022-12-19T07:40:03.497Z,-7.00
2022-12-19T07:42:34.088Z,-6.90
2022-12-19T07:45:04.210Z,-6.90
2022-12-19T07:47:31.487Z,-7.00
2022-12-19T07:50:01.442Z,-6.90
2022-12-19T07:52:29.182Z,-7.00
2022-12-19T07:54:59.437Z,-6.90
2022-12-19T07:57:28.997Z,-6.90
2022-12-19T07:59:59.170Z,-6.80
2022-12-19T08:02:28.413Z,-6.80
2022-12-19T08:05:00.187Z,-6.60
2022-12-19T08:07:31.967Z,-6.60
2022-12-19T08:10:02.334Z,-6.60
2022-12-19T08:12:35.788Z,-6.60
2022-12-19T08:15:05.822Z,-6.60
2022-12-19T08:17:38.697Z,-6.60
2022-12-19T08:20:09.192Z,-6.60
2022-12-19T08:22:38.469Z,-6.70
2022-12-19T08:25:07.484Z,-6.50
2022-12-19T08:27:34.974Z,-6.50
2022-12-19T08:30:07.939Z,-6.50
2022-12-19T08:32:36.147Z,-6.40
2022-12-19T08:35:07.301Z,-6.30
2022-12-19T08:37:40.468Z,-6.20
2022-12-19T08:40:15.212Z,-6.10
2022-12-19T08:42:42.319Z,-6.20
2022-12-19T08:45:14.844Z,-6.10
2022-12-19T08:47:44.812Z,-6.00
2022-12-19T08:50:14.665Z,-6.00
2022-12-19T08:52:44.485Z,-5.90
2022-12-19T08:55:14.324Z,-6.00
2022-12-19T08:57:49.006Z,-5.90
2022-12-19T09:00:20.708Z,-5.90
2022-12-19T09:02:48.789Z,-5.90
2022-12-19T09:06:02.644Z,-5.80
2022-12-19T09:08:09.859Z,-5.80
2022-12-19T09:10:40.435Z,-5.80
2022-12-19T09:13:08.796Z,-5.90
2022-12-19T09:15:38.504Z,-5.70
2022-12-19T09:18:06.618Z,-5.80
2022-12-19T09:20:41.015Z,-5.70
2022-12-19T09:23:10.579Z,-5.60
2022-12-19T09:25:42.753Z,-5.60
2022-12-19T09:28:29.976Z,-5.70
2022-12-19T09:31:03.423Z,-5.60
2022-12-19T09:33:35.489Z,-5.60
2022-12-19T09:36:17.034Z,-5.50
2022-12-19T09:38:44.144Z,-5.50
2022-12-19T09:41:15.940Z,-5.50
2022-12-19T09:43:57.046Z,-5.40
2022-12-19T09:46:52.521Z,-5.40
2022-12-19T09:49:33.627Z,-5.40
2022-12-19T09:52:13.940Z,-5.20
2022-12-19T09:54:54.756Z,-5.20
2022-12-19T09:57:43.059Z,-5.20
2022-12-19T10:00:20.021Z,-5.10
2022-12-19T10:02:54.344Z,-5.10
2022-12-19T10:06:04.646Z,-5.00
2022-12-19T10:08:37.991Z,-4.90
2022-12-19T10:12:35.150Z,-4.90
2022-12-19T10:14:44.802Z,-4.90
2022-12-19T10:17:30.599Z,-4.70
2022-12-19T10:20:04.184Z,-4.70
2022-12-19T10:22:59.704Z,-4.60
2022-12-19T10:25:37.187Z,-4.60
2022-12-19T10:28:37.534Z,-4.50
2022-12-19T10:31:30.048Z,-4.50
2022-12-19T10:34:13.402Z,-4.50
2022-12-19T10:37:18.242Z,-4.50
2022-12-19T10:40:28.017Z,-4.30
2022-12-19T10:43:25.614Z,-4.20
2022-12-19T10:46:11.463Z,-4.30
2022-12-19T10:48:39.051Z,-4.20
2022-12-19T10:51:19.166Z,-4.20
2022-12-19T10:53:58.869Z,-4.10
2022-12-19T10:56:37.781Z,-4.10
2022-12-19T10:59:16.619Z,-4.00
2022-12-19T11:01:51.744Z,-4.00
2022-12-19T11:04:36.622Z,-3.90
2022-12-19T11:07:03.764Z,-3.90
2022-12-19T11:09:36.368Z,-3.80
2022-12-19T11:14:43.190Z,-3.90
2022-12-19T11:18:56.715Z,-3.70
2022-12-19T11:24:23.768Z,-3.60
2022-12-19T11:29:18.861Z,-3.60
2022-12-19T11:30:05.171Z,-3.50
2022-12-19T11:30:38.462Z,-3.40
2022-12-19T11:32:42.653Z,-3.40
2022-12-19T11:35:22.032Z,-3.40
2022-12-19T11:37:56.014Z,-3.30
2022-12-19T11:40:50.142Z,-3.20
2022-12-19T11:43:43.693Z,-3.30
2022-12-19T11:46:37.815Z,-3.20
2022-12-19T11:49:28.840Z,-3.10
2022-12-19T11:52:06.113Z,-2.90
2022-12-19T11:54:39.885Z,-2.80
2022-12-19T11:57:12.896Z,-2.70
2022-12-19T11:59:46.638Z,-2.70
2022-12-19T12:02:42.311Z,-2.70
2022-12-19T12:05:44.222Z,-2.60
2022-12-19T12:11:39.142Z,-2.60
2022-12-19T12:17:29.526Z,-2.70
2022-12-19T12:26:08.962Z,-2.70
2022-12-19T12:31:01.414Z,-2.60
2022-12-19T12:31:07.464Z,-2.50
2022-12-19T12:31:17.059Z,-2.50
2022-12-19T12:31:43.766Z,-2.50
2022-12-19T12:35:13.606Z,-2.40
2022-12-19T12:35:33.434Z,-2.40
2022-12-19T12:40:24.859Z,-2.40
2022-12-19T12:43:26.119Z,-2.40
2022-12-19T12:46:01.610Z,-2.40
2022-12-19T12:48:41.803Z,-2.40
2022-12-19T12:51:11.973Z,-2.30
2022-12-19T12:53:45.609Z,-2.30
2022-12-19T12:56:17.754Z,-2.40
2022-12-19T12:58:48.574Z,-2.40
2022-12-19T13:01:31.282Z,-2.40
2022-12-19T13:04:07.724Z,-2.50
2022-12-19T13:06:39.478Z,-2.40
2022-12-19T13:09:09.694Z,-2.40
2022-12-19T13:12:07.584Z,-2.50
2022-12-19T13:14:34.973Z,-2.60
2022-12-19T13:17:34.515Z,-2.60
2022-12-19T13:20:04.371Z,-2.70
2022-12-19T13:22:33.567Z,-2.70
2022-12-19T13:25:25.867Z,-2.70
2022-12-19T13:28:21.400Z,-2.70
2022-12-19T13:31:18.784Z,-2.80
2022-12-19T13:33:55.833Z,-2.90
2022-12-19T13:39:48.929Z,-2.90
2022-12-19T13:40:09.194Z,-2.80
2022-12-19T13:43:11.465Z,-2.80
2022-12-19T13:45:50.936Z,-2.80
2022-12-19T13:48:43.039Z,-2.90
2022-12-19T13:51:15.967Z,-2.90
2022-12-19T13:53:46.165Z,-2.80
2022-12-19T13:56:17.762Z,-2.80
2022-12-19T13:58:53.382Z,-2.80
2022-12-19T14:01:30.662Z,-2.90
2022-12-19T14:04:07.975Z,-3.00
2022-12-19T14:06:50.187Z,-2.90
2022-12-19T14:11:26.707Z,-3.00
2022-12-19T14:13:57.073Z,-3.00
2022-12-19T14:15:37.925Z,-3.00
2022-12-19T14:18:42.672Z,-3.10
2022-12-19T14:22:11.198Z,-3.10
2022-12-19T14:24:20.784Z,-3.10
2022-12-19T14:28:25.746Z,-3.20
2022-12-19T14:30:28.971Z,-3.20
2022-12-19T14:33:44.501Z,-3.20
2022-12-19T14:36:10.320Z,-3.20
2022-12-19T14:39:25.776Z,-3.10
2022-12-19T14:42:00.577Z,-3.10
2022-12-19T14:52:34.427Z,-3.00
2022-12-19T14:54:15.599Z,-3.00
2022-12-19T14:54:30.695Z,-3.00
2022-12-19T14:57:25.549Z,-3.00
2022-12-19T15:01:10.368Z,-3.00
2022-12-19T15:03:26.696Z,-3.00
2022-12-19T15:07:05.252Z,-3.00
